METAR UND TAF INFORMATION

METAR FOR LFKC
ADDS - METARS form results

(0212 UTC 26 June 2022)
Data provider http://aviationweather.gov/metar/data/
 
METAR text: LFKC 260200Z AUTO 18006KT CAVOK 22/15 Q1012
Conditions at: LFKC (CALVI/ST. CATHER, FR) observed 0200 UTC 26 June 2022
Temperature: 22.0°C (72°F)
Dewpoint: 15.0°C (59°F) [RH = 65%]
Pressure (altimeter): 29.88 inches Hg (1012.0 mb)
Winds: from the S (180 degrees) at 7 MPH (6 knots; 3.1 m/s)
Visibility: 6 or more miles (10+ km)
Ceiling: ceiling and visibility are OK
Clouds: unknown
Weather: no significant weather observed at this time

METAR text: LFKC 260130Z AUTO 17006KT CAVOK 21/15 Q1012
Conditions at: LFKC (CALVI/ST. CATHER, FR) observed 0130 UTC 26 June 2022
Temperature: 21.0°C (70°F)
Dewpoint: 15.0°C (59°F) [RH = 69%]
Pressure (altimeter): 29.88 inches Hg (1012.0 mb)
Winds: from the S (170 degrees) at 7 MPH (6 knots; 3.1 m/s)
Visibility: 6 or more miles (10+ km)
Ceiling: ceiling and visibility are OK
Clouds: unknown
Weather: no significant weather observed at this time

 FLUGHAFENKARTE

 RUNWAY INFORMATION
Runway 18 Runway length 7579 ft Runway width 131 ft
Runway elevation 63 ft Runway displaced threshold 0 ft Runway heading 179
Runway 36 Runway length 7579 ft Runway width 131 ft
Runway elevation 198 ft Runway displaced threshold 656 ft Runway heading 359

 AIRPORT FREQUENCIES
Type ATIS Name CALVI ATIS Frequency 131.175 MHZ
Type GND Name CALVI GND Frequency 121.7 MHZ
Type TWR Name CALVI TWR Frequency 120.8 MHZ

 AIRPORT NEAR NAVIGATION AIDS
Type NDB Name Calvi Frequency 375 KHZ